KLS017 WIII-WMKK
Flight info
| Callsign | KLS017 |
|---|---|
| Flight time | N/A |
| Altitude | 36000 |
| Route | DOLTA A585 PKU/N0471F370 N633 SALAX SALAX1G |
| Aircraft | E195/M-SDE3GILORVW/S |
Departure
| Time | 2026-05-06 12:56 |
|---|---|
| Airport | Soekarno-Hatta International Airport (WIII) |
Arrival
| Time | N/A |
|---|---|
| Airport | Kuala Lumpur International Airport (WMKK) |
| Time | Latitude | Longitude | Altitude | Speed | Heading |
|---|---|---|---|---|---|
| 2026-05-06 12:08 | -6.12172 | 106.65661 | 46 ft | 0 kts | 286° |
| 2026-05-06 12:34 | -6.12171 | 106.65660 | 46 ft | 0 kts | 286° |
| 2026-05-06 12:35 | -6.12171 | 106.65661 | 46 ft | 0 kts | 286° |
| 2026-05-06 12:35 | -6.12175 | 106.65674 | 46 ft | 2 kts | 286° |
| 2026-05-06 12:35 | -6.12179 | 106.65688 | 46 ft | 2 kts | 286° |
| 2026-05-06 12:35 | -6.12183 | 106.65703 | 46 ft | 2 kts | 286° |
| 2026-05-06 12:36 | -6.12189 | 106.65716 | 46 ft | 2 kts | 319° |
| 2026-05-06 12:36 | -6.12201 | 106.65720 | 46 ft | 0 kts | 4° |
| 2026-05-06 12:36 | -6.12204 | 106.65720 | 46 ft | 0 kts | 4° |
| 2026-05-06 12:40 | -6.12208 | 106.65720 | 46 ft | 0 kts | 340° |
| 2026-05-06 12:40 | -6.12214 | 106.65726 | 46 ft | 2 kts | 309° |
| 2026-05-06 12:40 | -6.12226 | 106.65737 | 46 ft | 2 kts | 322° |
| 2026-05-06 12:41 | -6.12237 | 106.65746 | 46 ft | 2 kts | 318° |
| 2026-05-06 12:41 | -6.12246 | 106.65754 | 46 ft | 1 kts | 318° |
| 2026-05-06 12:41 | -6.12250 | 106.65756 | 46 ft | 1 kts | 9° |
| 2026-05-06 12:41 | -6.12253 | 106.65756 | 46 ft | 0 kts | 7° |
| 2026-05-06 12:43 | -6.12247 | 106.65756 | 46 ft | 1 kts | 5° |
| 2026-05-06 12:43 | -6.12224 | 106.65757 | 46 ft | 4 kts | 2° |
| 2026-05-06 12:44 | -6.12181 | 106.65758 | 46 ft | 7 kts | 2° |
| 2026-05-06 12:44 | -6.12121 | 106.65762 | 46 ft | 10 kts | 3° |
| 2026-05-06 12:44 | -6.12059 | 106.65739 | 46 ft | 10 kts | 315° |
| 2026-05-06 12:44 | -6.11986 | 106.65700 | 46 ft | 12 kts | 338° |
| 2026-05-06 12:45 | -6.11902 | 106.65668 | 46 ft | 13 kts | 338° |
| 2026-05-06 12:45 | -6.11813 | 106.65633 | 46 ft | 14 kts | 338° |
| 2026-05-06 12:45 | -6.11664 | 106.65572 | 46 ft | 7 kts | 333° |
| 2026-05-06 12:46 | -6.11646 | 106.65527 | 46 ft | 8 kts | 265° |
| 2026-05-06 12:46 | -6.11664 | 106.65469 | 46 ft | 9 kts | 249° |
| 2026-05-06 12:46 | -6.11691 | 106.65399 | 46 ft | 11 kts | 249° |
| 2026-05-06 12:46 | -6.11726 | 106.65313 | 46 ft | 14 kts | 248° |
| 2026-05-06 12:47 | -6.11768 | 106.65209 | 46 ft | 17 kts | 249° |
| 2026-05-06 12:47 | -6.11817 | 106.65083 | 46 ft | 20 kts | 247° |
| 2026-05-06 12:47 | -6.11874 | 106.64940 | 46 ft | 22 kts | 248° |
| 2026-05-06 12:47 | -6.11933 | 106.64790 | 46 ft | 23 kts | 248° |
| 2026-05-06 12:48 | -6.11995 | 106.64637 | 46 ft | 23 kts | 249° |
| 2026-05-06 12:48 | -6.12052 | 106.64491 | 46 ft | 21 kts | 248° |
| 2026-05-06 12:48 | -6.12093 | 106.64391 | 46 ft | 11 kts | 248° |
| 2026-05-06 12:48 | -6.12123 | 106.64315 | 46 ft | 12 kts | 248° |
| 2026-05-06 12:49 | -6.12155 | 106.64232 | 46 ft | 13 kts | 248° |
| 2026-05-06 12:49 | -6.12193 | 106.64137 | 46 ft | 15 kts | 248° |
| 2026-05-06 12:49 | -6.12236 | 106.64030 | 46 ft | 17 kts | 249° |
| 2026-05-06 12:49 | -6.12263 | 106.63958 | 46 ft | 2 kts | 261° |
| 2026-05-06 12:50 | -6.12263 | 106.63953 | 46 ft | 1 kts | 266° |
| 2026-05-06 12:50 | -6.12263 | 106.63947 | 46 ft | 1 kts | 266° |
| 2026-05-06 12:50 | -6.12262 | 106.63931 | 46 ft | 3 kts | 287° |
| 2026-05-06 12:50 | -6.12240 | 106.63904 | 46 ft | 6 kts | 321° |
| 2026-05-06 12:51 | -6.12221 | 106.63892 | 46 ft | 0 kts | 334° |
| 2026-05-06 12:52 | -6.12218 | 106.63892 | 46 ft | 1 kts | 334° |
| 2026-05-06 12:52 | -6.12199 | 106.63884 | 46 ft | 4 kts | 349° |
| 2026-05-06 12:53 | -6.12157 | 106.63894 | 46 ft | 7 kts | 20° |
| 2026-05-06 12:53 | -6.12105 | 106.63913 | 46 ft | 7 kts | 20° |
| 2026-05-06 12:53 | -6.12078 | 106.63944 | 46 ft | 0 kts | 66° |
| 2026-05-06 12:55 | -6.12062 | 106.63979 | 46 ft | 25 kts | 66° |
| 2026-05-06 12:55 | -6.11914 | 106.64353 | 46 ft | 89 kts | 68° |
| 2026-05-06 12:55 | -6.11609 | 106.65116 | 46 ft | 142 kts | 68° |
| 2026-05-06 12:56 | -6.11190 | 106.66157 | 174 ft | 171 kts | 68° |
| 2026-05-06 12:56 | -6.10717 | 106.67285 | 787 ft | 170 kts | 60° |
| 2026-05-06 12:56 | -6.09914 | 106.68033 | 1451 ft | 167 kts | 27° |
| 2026-05-06 12:56 | -6.08818 | 106.68618 | 1674 ft | 191 kts | 32° |
| 2026-05-06 12:57 | -6.07625 | 106.69331 | 2035 ft | 208 kts | 33° |
| 2026-05-06 12:57 | -6.06339 | 106.70140 | 2457 ft | 224 kts | 34° |
| 2026-05-06 12:57 | -6.05029 | 106.70991 | 3127 ft | 228 kts | 35° |
| 2026-05-06 12:57 | -6.03693 | 106.71875 | 3618 ft | 233 kts | 36° |
| 2026-05-06 12:58 | -6.02283 | 106.72818 | 4015 ft | 251 kts | 36° |
| 2026-05-06 12:58 | -6.00798 | 106.73817 | 4412 ft | 264 kts | 36° |
| 2026-05-06 12:58 | -5.99202 | 106.74793 | 4793 ft | 274 kts | 21° |
| 2026-05-06 12:58 | -5.97281 | 106.74904 | 5397 ft | 286 kts | 347° |
| 2026-05-06 12:59 | -5.95561 | 106.73903 | 6141 ft | 291 kts | 313° |
| 2026-05-06 12:59 | -5.94582 | 106.72148 | 6868 ft | 293 kts | 291° |
| 2026-05-06 12:59 | -5.93823 | 106.70246 | 7543 ft | 294 kts | 294° |
| 2026-05-06 12:59 | -5.93013 | 106.68381 | 8152 ft | 297 kts | 295° |
| 2026-05-06 13:00 | -5.92157 | 106.66482 | 8731 ft | 300 kts | 296° |
| 2026-05-06 13:00 | -5.91278 | 106.64565 | 9301 ft | 304 kts | 296° |
| 2026-05-06 13:00 | -5.90392 | 106.62646 | 9863 ft | 306 kts | 296° |
| 2026-05-06 13:00 | -5.89483 | 106.60689 | 10409 ft | 310 kts | 296° |
| 2026-05-06 13:01 | -5.88556 | 106.58697 | 10885 ft | 316 kts | 296° |
| 2026-05-06 13:01 | -5.87627 | 106.56703 | 11281 ft | 324 kts | 296° |
| 2026-05-06 13:01 | -5.86656 | 106.54621 | 11635 ft | 333 kts | 296° |
| 2026-05-06 13:01 | -5.85664 | 106.52491 | 12021 ft | 341 kts | 295° |
| 2026-05-06 13:02 | -5.84652 | 106.50321 | 12455 ft | 346 kts | 295° |
| 2026-05-06 13:02 | -5.83620 | 106.48109 | 12955 ft | 349 kts | 295° |
| 2026-05-06 13:02 | -5.82592 | 106.45904 | 13474 ft | 351 kts | 295° |
| 2026-05-06 13:02 | -5.81571 | 106.43703 | 13976 ft | 353 kts | 295° |
| 2026-05-06 13:03 | -5.80390 | 106.41524 | 14466 ft | 354 kts | 306° |
| 2026-05-06 13:03 | -5.78815 | 106.39660 | 14928 ft | 354 kts | 319° |
| 2026-05-06 13:03 | -5.76775 | 106.38249 | 15377 ft | 354 kts | 326° |
| 2026-05-06 13:03 | -5.74790 | 106.36787 | 15840 ft | 356 kts | 325° |
| 2026-05-06 13:04 | -5.72756 | 106.35313 | 16297 ft | 358 kts | 326° |
| 2026-05-06 13:04 | -5.70733 | 106.33862 | 16747 ft | 360 kts | 326° |
| 2026-05-06 13:04 | -5.68674 | 106.32392 | 17202 ft | 361 kts | 326° |
| 2026-05-06 13:04 | -5.66634 | 106.30938 | 17616 ft | 363 kts | 326° |
| 2026-05-06 13:05 | -5.64571 | 106.29469 | 17996 ft | 366 kts | 326° |
| 2026-05-06 13:05 | -5.62456 | 106.27963 | 18362 ft | 369 kts | 326° |
| 2026-05-06 13:05 | -5.60371 | 106.26479 | 18710 ft | 373 kts | 327° |
| 2026-05-06 13:05 | -5.58243 | 106.24963 | 19075 ft | 375 kts | 326° |
| 2026-05-06 13:06 | -5.56105 | 106.23441 | 19455 ft | 377 kts | 327° |